Flugplatz Oberschleißheim Airfield

Für EDNX sind keine METAR/TAF Berichte vorhanden.
Es werden die Flugwettermeldungen vom Flugplatz Munich International in 21 km Entfernung angezeigt.

Bericht für EDDM

vom 01.12. um 08:20 UTC

Wind 18 kt aus 260° in Böen 28 kt

Sichtweite 10 km oder mehr

gute Sicht, keine Wolken < 5000 ft, keine CB, keine Wettererscheinungen (CAVOK)

Temperatur 6.0°C

Taupunkt 2.0°C

Luftfeuchtigkeit 75%

Luftdruck 1005 hPa

keine wesentliche Wetteränderung innerhalb den nächsten 2 Stunden zu erwarten

EDDM 010820Z 26018G28KT CAVOK 06/02 Q1005 NOSIG

Prognose für EDDM

vom 01.12. um 05:00 UTC

Zwischen 06:00 UTC und 22:00 UTC

Wind 15 kt aus 250° in Böen 25 kt

Sichtweite 10 km oder mehr

aufgelockert bewölkt in 3500 ft


Zwischen 17:00 UTC und 20:00 UTC zeitweise mit einer Wahrscheinlichkeit von 40%

Wind 20 kt aus 220° in Böen 35 kt


Zwischen 22:00 und 00:00 UTC übergehend zu

Wind 12 kt aus 230°

Sichtweite 10 km oder mehr

aufgelockert bewölkt in 3500 ft

TAF EDDM 010500Z 0106/0212 25015G25KT 9999 SCT035 PROB40 TEMPO 0117/0120 22020G35KT BECMG 0122/0124 23012KT
Impressum